createdAt,value
2023-01-22T00:00:09.192Z,-2.20
2023-01-22T00:02:42.722Z,-2.22
2023-01-22T00:05:10.453Z,-2.18
2023-01-22T00:07:37.978Z,-2.12
2023-01-22T00:10:05.391Z,-2.01
2023-01-22T00:12:32.843Z,-2.03
2023-01-22T00:15:00.049Z,-1.98
2023-01-22T00:17:27.609Z,-1.93
2023-01-22T00:19:54.868Z,-1.91
2023-01-22T00:22:22.315Z,-1.87
2023-01-22T00:24:49.534Z,-1.99
2023-01-22T00:27:17.408Z,-1.94
2023-01-22T00:29:44.704Z,-2.04
2023-01-22T00:32:12.188Z,-2.10
2023-01-22T00:34:41.637Z,-2.08
2023-01-22T00:37:08.818Z,-2.01
2023-01-22T00:39:36.138Z,-1.89
2023-01-22T00:42:06.540Z,-1.81
2023-01-22T00:44:33.926Z,-1.81
2023-01-22T00:47:01.151Z,-1.75
2023-01-22T00:49:28.351Z,-1.64
2023-01-22T00:51:55.574Z,-1.76
2023-01-22T00:54:22.965Z,-1.64
2023-01-22T00:56:50.217Z,-1.72
2023-01-22T00:59:17.555Z,-1.74
2023-01-22T01:01:44.904Z,-1.73
2023-01-22T01:04:13.727Z,-1.74
2023-01-22T01:06:40.957Z,-1.75
2023-01-22T01:09:08.214Z,-1.71
2023-01-22T01:11:36.378Z,-1.67
2023-01-22T01:14:04.032Z,-1.69
2023-01-22T01:16:32.126Z,-1.63
2023-01-22T01:19:04.215Z,-1.64
2023-01-22T01:21:31.865Z,-1.63
2023-01-22T01:23:59.665Z,-1.61
2023-01-22T01:26:26.991Z,-1.57
2023-01-22T01:28:55.995Z,-1.58
2023-01-22T01:31:24.412Z,-1.65
2023-01-22T01:33:51.721Z,-1.59
2023-01-22T01:36:35.303Z,-1.61
2023-01-22T01:39:04.326Z,-1.51
2023-01-22T01:41:31.608Z,-1.47
2023-01-22T01:44:19.918Z,-1.53
2023-01-22T01:46:50.097Z,-1.53
2023-01-22T01:49:25.350Z,-1.54
2023-01-22T01:51:54.659Z,-1.56
2023-01-22T01:54:22.375Z,-1.58
2023-01-22T01:56:51.888Z,-1.61
2023-01-22T01:59:20.259Z,-1.56
2023-01-22T02:01:49.929Z,-1.53
2023-01-22T02:04:17.653Z,-1.41
2023-01-22T02:06:45.133Z,-1.49
2023-01-22T02:09:13.464Z,-1.52
2023-01-22T02:11:40.795Z,-1.58
2023-01-22T02:14:13.145Z,-1.60
2023-01-22T02:16:40.604Z,-1.43
2023-01-22T02:19:08.066Z,-1.50
2023-01-22T02:21:37.162Z,-1.52
2023-01-22T02:24:05.891Z,-1.52
2023-01-22T02:26:33.956Z,-1.56
2023-01-22T02:29:01.232Z,-1.62
2023-01-22T02:31:30.766Z,-1.56
2023-01-22T02:33:59.110Z,-1.55
2023-01-22T02:36:29.629Z,-1.58
2023-01-22T02:38:56.979Z,-1.51
2023-01-22T02:41:24.890Z,-1.44
2023-01-22T02:43:52.229Z,-1.38
2023-01-22T02:46:21.705Z,-1.32
2023-01-22T02:48:50.211Z,-1.36
2023-01-22T02:51:17.850Z,-1.34
2023-01-22T02:53:47.591Z,-1.37
2023-01-22T02:56:14.846Z,-1.32
2023-01-22T02:58:42.301Z,-1.24
2023-01-22T03:01:20.982Z,-1.24
2023-01-22T03:04:01.669Z,-1.18
2023-01-22T03:06:29.831Z,-1.20
2023-01-22T03:09:00.637Z,-1.18
2023-01-22T03:11:30.275Z,-1.15
2023-01-22T03:14:24.017Z,-1.10
2023-01-22T03:17:12.130Z,-1.12
2023-01-22T03:19:58.310Z,-1.10
2023-01-22T03:22:26.117Z,-1.13
2023-01-22T03:24:58.873Z,-1.13
2023-01-22T03:27:27.823Z,-1.26
2023-01-22T03:29:57.914Z,-1.21
2023-01-22T03:32:25.813Z,-1.20
2023-01-22T03:34:54.008Z,-1.18
2023-01-22T03:37:23.192Z,-1.31
2023-01-22T03:39:53.782Z,-1.37
2023-01-22T03:42:35.299Z,-1.32
2023-01-22T03:45:02.796Z,-1.41
2023-01-22T03:47:30.574Z,-1.38
2023-01-22T03:50:01.034Z,-1.32
2023-01-22T03:52:28.660Z,-1.34
2023-01-22T03:54:55.885Z,-1.30
2023-01-22T03:57:24.218Z,-1.27
2023-01-22T03:59:51.484Z,-1.21
2023-01-22T04:02:19.393Z,-1.08
2023-01-22T04:05:03.537Z,-1.13
2023-01-22T04:07:31.001Z,-1.14
2023-01-22T04:09:58.395Z,-1.07
2023-01-22T04:12:26.189Z,-1.07
2023-01-22T04:14:53.666Z,-1.06
2023-01-22T04:17:25.641Z,-1.06
2023-01-22T04:20:12.725Z,-1.08
2023-01-22T04:22:47.751Z,-1.13
2023-01-22T04:25:16.086Z,-1.12
2023-01-22T04:27:45.024Z,-1.12
2023-01-22T04:30:14.008Z,-1.07
2023-01-22T04:32:41.326Z,-1.13
2023-01-22T04:35:24.430Z,-1.20
2023-01-22T04:37:57.300Z,-1.14
2023-01-22T04:40:24.697Z,-1.10
2023-01-22T04:42:52.265Z,-1.05
2023-01-22T04:45:19.739Z,-0.99
2023-01-22T04:47:48.652Z,-0.93
2023-01-22T04:50:24.279Z,-0.89
2023-01-22T04:52:52.757Z,-0.81
2023-01-22T04:55:20.725Z,-0.86
2023-01-22T04:57:59.320Z,-0.94
2023-01-22T05:00:27.323Z,-1.00
2023-01-22T05:02:58.940Z,-0.99
2023-01-22T05:05:28.475Z,-0.94
2023-01-22T05:07:55.959Z,-0.92
2023-01-22T05:10:23.546Z,-0.88
2023-01-22T05:12:50.941Z,-0.92
2023-01-22T05:15:24.348Z,-0.94
2023-01-22T05:17:54.216Z,-1.00
2023-01-22T05:20:21.675Z,-1.02
2023-01-22T05:22:49.575Z,-1.02
2023-01-22T05:25:20.274Z,-1.10
2023-01-22T05:27:48.108Z,-1.19
2023-01-22T05:30:25.523Z,-1.19
2023-01-22T05:33:00.708Z,-1.16
2023-01-22T05:35:29.716Z,-1.08
2023-01-22T05:37:57.764Z,-1.07
2023-01-22T05:40:25.141Z,-1.03
2023-01-22T05:42:53.646Z,-0.95
2023-01-22T05:45:22.011Z,-0.89
2023-01-22T05:48:18.303Z,-0.86
2023-01-22T05:51:06.906Z,-0.85
2023-01-22T05:53:35.666Z,-0.79
2023-01-22T05:56:03.758Z,-0.75
2023-01-22T05:58:35.818Z,-0.69
2023-01-22T06:01:03.415Z,-0.61
2023-01-22T06:03:36.105Z,-0.66
2023-01-22T06:06:11.194Z,-0.69
2023-01-22T06:08:41.909Z,-0.77
2023-01-22T06:11:13.345Z,-0.71
2023-01-22T06:13:44.892Z,-0.80
2023-01-22T06:16:22.999Z,-0.88
2023-01-22T06:19:05.887Z,-0.83
2023-01-22T06:21:59.284Z,-0.78
2023-01-22T06:24:34.475Z,-0.77
2023-01-22T06:27:02.285Z,-0.73
2023-01-22T06:29:40.232Z,-0.86
2023-01-22T06:32:08.100Z,-0.83
2023-01-22T06:34:38.258Z,-0.72
2023-01-22T06:37:08.075Z,-0.63
2023-01-22T06:39:38.347Z,-0.59
2023-01-22T06:42:12.867Z,-0.60
2023-01-22T06:44:40.939Z,-0.54
2023-01-22T06:47:08.304Z,-0.58
2023-01-22T06:49:35.685Z,-0.52
2023-01-22T06:52:05.913Z,-0.40
2023-01-22T06:54:33.513Z,-0.49
2023-01-22T06:57:01.009Z,-0.43
2023-01-22T06:59:28.326Z,-0.45
2023-01-22T07:01:55.619Z,-0.43
2023-01-22T07:04:25.063Z,-0.38
2023-01-22T07:06:52.267Z,-0.28
2023-01-22T07:09:19.642Z,-0.16
2023-01-22T07:11:46.954Z,-0.23
2023-01-22T07:14:15.178Z,-0.30
2023-01-22T07:16:42.401Z,-0.23
2023-01-22T07:19:09.667Z,-0.29
2023-01-22T07:21:36.903Z,-0.25
2023-01-22T07:24:04.232Z,-0.19
2023-01-22T07:26:31.490Z,-0.16
2023-01-22T07:28:58.699Z,-0.13
2023-01-22T07:31:25.928Z,-0.08
2023-01-22T07:33:53.131Z,0.01
2023-01-22T07:36:20.371Z,0.08
2023-01-22T07:38:47.561Z,0.09
2023-01-22T07:41:25.424Z,0.14
2023-01-22T07:43:53.717Z,0.16
2023-01-22T07:46:21.014Z,0.18
2023-01-22T07:48:49.321Z,0.28
2023-01-22T07:51:17.683Z,0.30
2023-01-22T07:53:44.994Z,0.26
2023-01-22T07:56:12.642Z,0.28
2023-01-22T07:58:41.272Z,0.43
2023-01-22T08:01:08.780Z,0.43
2023-01-22T08:03:37.917Z,0.41
2023-01-22T08:06:12.932Z,0.45
2023-01-22T08:08:40.212Z,0.55
2023-01-22T08:11:07.455Z,0.54
2023-01-22T08:13:37.439Z,0.52
2023-01-22T08:16:04.915Z,0.54
2023-01-22T08:18:32.338Z,0.59
2023-01-22T08:21:02.510Z,0.67
2023-01-22T08:23:30.133Z,0.66
2023-01-22T08:26:01.253Z,0.69
2023-01-22T08:28:28.625Z,0.75
2023-01-22T08:31:00.037Z,0.79
2023-01-22T08:33:28.298Z,0.83
2023-01-22T08:35:55.811Z,0.83
2023-01-22T08:38:23.246Z,0.80
2023-01-22T08:40:53.728Z,0.83
2023-01-22T08:43:21.192Z,0.83
2023-01-22T08:45:49.553Z,0.89
2023-01-22T08:48:17.872Z,0.95
2023-01-22T08:50:45.382Z,1.00
2023-01-22T08:53:12.696Z,0.99
2023-01-22T08:55:40.169Z,1.00
2023-01-22T08:58:08.053Z,1.00
2023-01-22T09:00:35.271Z,0.99
2023-01-22T09:03:02.481Z,0.99
2023-01-22T09:05:29.776Z,1.05
2023-01-22T09:07:58.063Z,1.13
2023-01-22T09:10:25.623Z,1.09
2023-01-22T09:12:54.185Z,1.09
2023-01-22T09:15:21.394Z,1.07
2023-01-22T09:17:48.623Z,1.06
2023-01-22T09:20:16.368Z,1.05
2023-01-22T09:22:47.486Z,1.08
2023-01-22T09:25:15.104Z,1.09
2023-01-22T09:27:42.451Z,1.06
2023-01-22T09:30:10.109Z,1.10
2023-01-22T09:32:37.486Z,1.18
2023-01-22T09:35:08.358Z,1.26
2023-01-22T09:37:35.561Z,1.28
2023-01-22T09:40:02.813Z,1.30
2023-01-22T09:42:35.237Z,1.27
2023-01-22T09:45:06.695Z,1.22
2023-01-22T09:47:36.881Z,1.19
2023-01-22T09:50:12.526Z,1.16
2023-01-22T09:52:40.241Z,1.22
2023-01-22T09:55:14.616Z,1.16
2023-01-22T09:57:50.437Z,1.24
2023-01-22T10:00:38.022Z,1.23
2023-01-22T10:03:07.691Z,1.24
2023-01-22T10:05:56.211Z,1.24
2023-01-22T10:08:26.320Z,1.21
2023-01-22T10:10:53.688Z,1.21
2023-01-22T10:13:22.409Z,1.15
2023-01-22T10:15:51.113Z,1.18
2023-01-22T10:18:26.991Z,1.24
2023-01-22T10:20:55.278Z,1.34
2023-01-22T10:23:24.241Z,1.34
2023-01-22T10:26:04.802Z,1.39
2023-01-22T10:28:32.030Z,1.45
2023-01-22T10:30:59.575Z,1.43
2023-01-22T10:33:27.759Z,1.39
2023-01-22T10:35:56.938Z,1.41
2023-01-22T10:38:30.111Z,1.35
2023-01-22T10:41:01.810Z,1.31
2023-01-22T10:43:36.529Z,1.30
2023-01-22T10:46:17.932Z,1.20
2023-01-22T10:48:45.154Z,1.08
2023-01-22T10:51:17.093Z,1.00
2023-01-22T10:53:54.993Z,1.00
2023-01-22T10:56:27.733Z,0.99
2023-01-22T10:58:55.494Z,0.95
2023-01-22T11:01:34.702Z,0.97
2023-01-22T11:04:15.155Z,0.98
2023-01-22T11:06:45.578Z,1.05
2023-01-22T11:09:25.191Z,1.11
2023-01-22T11:11:57.799Z,1.13
2023-01-22T11:14:31.394Z,1.16
2023-01-22T11:17:01.480Z,1.05
2023-01-22T11:19:37.452Z,0.95
2023-01-22T11:22:11.818Z,0.96
2023-01-22T11:24:42.891Z,0.98
2023-01-22T11:27:28.958Z,1.02
2023-01-22T11:29:59.162Z,0.92
2023-01-22T11:32:45.276Z,0.93
2023-01-22T11:35:18.209Z,0.93
2023-01-22T11:37:46.373Z,0.93
2023-01-22T11:40:19.710Z,0.96
2023-01-22T11:42:50.161Z,1.00
2023-01-22T11:45:20.381Z,0.92
2023-01-22T11:48:06.443Z,0.88
2023-01-22T11:50:40.089Z,0.74
2023-01-22T11:53:25.645Z,0.69
2023-01-22T11:55:54.696Z,0.66
2023-01-22T11:58:37.059Z,0.62
2023-01-22T12:01:10.352Z,0.60
2023-01-22T12:03:38.505Z,0.58
2023-01-22T12:06:13.039Z,0.66
2023-01-22T12:08:43.228Z,0.57
2023-01-22T12:11:10.440Z,0.54
2023-01-22T12:13:40.629Z,0.50
2023-01-22T12:16:07.901Z,0.44
2023-01-22T12:18:41.172Z,0.39
2023-01-22T12:21:12.605Z,0.39
2023-01-22T12:23:59.034Z,0.47
2023-01-22T12:26:33.371Z,0.51
2023-01-22T12:29:29.039Z,0.58
2023-01-22T12:32:05.063Z,0.43
2023-01-22T12:34:40.184Z,0.42
2023-01-22T12:37:08.045Z,0.51
2023-01-22T12:39:58.509Z,0.57
2023-01-22T12:42:40.201Z,0.50
2023-01-22T12:45:10.487Z,0.49
2023-01-22T12:47:52.243Z,0.53
2023-01-22T12:50:23.013Z,0.50
2023-01-22T12:52:59.502Z,0.54
2023-01-22T12:55:30.489Z,0.62
2023-01-22T12:57:58.289Z,0.64
2023-01-22T13:00:30.668Z,0.57
2023-01-22T13:02:58.073Z,0.57
2023-01-22T13:05:31.363Z,0.52
2023-01-22T13:08:21.969Z,0.48
2023-01-22T13:10:58.379Z,0.37
2023-01-22T13:13:33.963Z,0.34
2023-01-22T13:16:05.963Z,0.39
2023-01-22T13:18:35.173Z,0.43
2023-01-22T13:21:07.075Z,0.47
2023-01-22T13:23:35.528Z,0.41
2023-01-22T13:26:03.268Z,0.48
2023-01-22T13:28:30.987Z,0.43
2023-01-22T13:31:02.874Z,0.43
2023-01-22T13:33:30.926Z,0.40
2023-01-22T13:35:58.633Z,0.38
2023-01-22T13:38:30.978Z,0.32
2023-01-22T13:41:13.137Z,0.35
2023-01-22T13:43:41.806Z,0.33
2023-01-22T13:46:13.124Z,0.38
2023-01-22T13:48:40.559Z,0.29
2023-01-22T13:51:14.451Z,0.17
2023-01-22T13:53:46.011Z,0.13
2023-01-22T13:56:17.288Z,0.20
2023-01-22T13:58:49.017Z,0.25
2023-01-22T14:01:29.943Z,0.29
2023-01-22T14:04:01.880Z,0.36
2023-01-22T14:06:29.631Z,0.36
2023-01-22T14:08:57.946Z,0.42
2023-01-22T14:11:25.247Z,0.39
2023-01-22T14:13:53.289Z,0.34
2023-01-22T14:16:21.447Z,0.35
2023-01-22T14:18:48.706Z,0.43
2023-01-22T14:21:16.665Z,0.40
2023-01-22T14:23:44.075Z,0.33
2023-01-22T14:26:11.749Z,0.38
2023-01-22T14:28:39.158Z,0.40
2023-01-22T14:31:06.533Z,0.37
2023-01-22T14:33:37.330Z,0.40
2023-01-22T14:36:04.907Z,0.41
2023-01-22T14:38:32.247Z,0.44
2023-01-22T14:41:03.004Z,0.49
2023-01-22T14:43:30.370Z,0.57
2023-01-22T14:45:57.653Z,0.63
2023-01-22T14:48:25.077Z,0.61
2023-01-22T14:50:52.994Z,0.61
2023-01-22T14:53:20.200Z,0.63
2023-01-22T14:55:47.435Z,0.62
2023-01-22T14:58:16.891Z,0.49
2023-01-22T15:01:13.933Z,0.41
2023-01-22T15:03:41.182Z,0.24
2023-01-22T15:06:08.394Z,0.24
2023-01-22T15:08:35.702Z,0.32
2023-01-22T15:11:03.305Z,0.41
2023-01-22T15:13:30.601Z,0.41
2023-01-22T15:16:01.888Z,0.43
2023-01-22T15:18:29.132Z,0.48
2023-01-22T15:20:56.540Z,0.58
2023-01-22T15:23:23.724Z,0.61
2023-01-22T15:26:20.099Z,0.55
2023-01-22T15:28:47.335Z,0.54
2023-01-22T15:31:14.654Z,0.58
2023-01-22T15:33:42.062Z,0.58
2023-01-22T15:36:09.503Z,0.63
2023-01-22T15:38:36.945Z,0.64
2023-01-22T15:41:05.652Z,0.64
2023-01-22T15:43:33.092Z,0.63
2023-01-22T15:46:00.503Z,0.58
2023-01-22T15:48:27.755Z,0.56
2023-01-22T15:50:55.022Z,0.57
2023-01-22T15:53:22.283Z,0.55
2023-01-22T15:55:50.127Z,0.54
2023-01-22T15:58:17.399Z,0.46
2023-01-22T16:00:44.655Z,0.41
2023-01-22T16:03:12.160Z,0.33
2023-01-22T16:05:39.381Z,0.31
2023-01-22T16:08:06.926Z,0.29
2023-01-22T16:10:34.190Z,0.25
2023-01-22T16:13:01.415Z,0.12
2023-01-22T16:15:28.629Z,0.10
2023-01-22T16:17:55.850Z,0.12
2023-01-22T16:20:23.299Z,0.11
2023-01-22T16:22:50.690Z,0.06
2023-01-22T16:25:17.974Z,-0.03
2023-01-22T16:27:45.185Z,-0.02
2023-01-22T16:30:13.061Z,-0.06
2023-01-22T16:32:42.717Z,-0.09
2023-01-22T16:35:10.732Z,-0.05
2023-01-22T16:37:39.212Z,-0.01
2023-01-22T16:40:07.450Z,0.08
2023-01-22T16:42:36.514Z,0.08
2023-01-22T16:45:03.837Z,0.11
2023-01-22T16:47:31.040Z,0.08
2023-01-22T16:49:58.261Z,0.04
2023-01-22T16:52:25.451Z,0.05
2023-01-22T16:54:52.654Z,-0.01
2023-01-22T16:57:21.194Z,-0.07
2023-01-22T16:59:48.560Z,-0.10
2023-01-22T17:02:16.177Z,-0.11
2023-01-22T17:04:43.478Z,-0.12
2023-01-22T17:07:20.481Z,-0.20
2023-01-22T17:09:54.975Z,-0.17
2023-01-22T17:12:22.187Z,-0.10
2023-01-22T17:14:52.748Z,-0.03
2023-01-22T17:17:19.944Z,-0.06
2023-01-22T17:19:47.149Z,-0.08
2023-01-22T17:22:14.383Z,-0.14
2023-01-22T17:24:41.864Z,-0.24
2023-01-22T17:27:09.419Z,-0.23
2023-01-22T17:29:36.735Z,-0.31
2023-01-22T17:32:04.327Z,-0.26
2023-01-22T17:34:31.661Z,-0.19
2023-01-22T17:36:59.115Z,-0.11
2023-01-22T17:39:27.182Z,-0.05
2023-01-22T17:41:54.483Z,-0.04
2023-01-22T17:44:25.471Z,-0.10
2023-01-22T17:46:55.565Z,-0.08
2023-01-22T17:49:25.117Z,-0.07
2023-01-22T17:51:52.360Z,-0.07
2023-01-22T17:54:20.065Z,-0.16
2023-01-22T17:56:49.188Z,-0.17
2023-01-22T17:59:16.680Z,-0.12
2023-01-22T18:01:45.209Z,-0.01
2023-01-22T18:04:13.479Z,0.10
2023-01-22T18:06:41.676Z,0.20
2023-01-22T18:09:09.428Z,0.19
2023-01-22T18:11:37.550Z,0.15
2023-01-22T18:14:06.853Z,0.05
2023-01-22T18:16:36.116Z,-0.07
2023-01-22T18:19:07.350Z,-0.16
2023-01-22T18:21:35.468Z,-0.18
2023-01-22T18:24:03.483Z,-0.11
2023-01-22T18:26:30.913Z,-0.14
2023-01-22T18:28:59.309Z,-0.16
2023-01-22T18:31:27.603Z,-0.20
2023-01-22T18:34:02.386Z,-0.20
2023-01-22T18:36:30.736Z,-0.23
2023-01-22T18:39:02.362Z,-0.21
2023-01-22T18:41:29.821Z,-0.12
2023-01-22T18:43:58.196Z,-0.05
2023-01-22T18:46:28.102Z,0.05
2023-01-22T18:48:56.867Z,-0.01
2023-01-22T18:51:24.418Z,0.03
2023-01-22T18:53:52.006Z,0.08
2023-01-22T18:56:19.233Z,0.14
2023-01-22T18:58:48.273Z,0.17
2023-01-22T19:01:17.428Z,0.17
2023-01-22T19:03:46.418Z,0.20
2023-01-22T19:06:19.713Z,0.20
2023-01-22T19:08:48.816Z,0.16
2023-01-22T19:11:18.392Z,0.16
2023-01-22T19:13:46.113Z,0.20
2023-01-22T19:16:15.016Z,0.22
2023-01-22T19:18:44.012Z,0.12
2023-01-22T19:21:13.974Z,0.09
2023-01-22T19:23:44.064Z,0.09
2023-01-22T19:26:13.488Z,0.06
2023-01-22T19:28:40.732Z,0.03
2023-01-22T19:31:15.429Z,0.02
2023-01-22T19:33:42.688Z,0.04
2023-01-22T19:36:11.365Z,0.07
2023-01-22T19:38:39.175Z,-0.03
2023-01-22T19:41:06.972Z,-0.05
2023-01-22T19:43:34.335Z,0.00
2023-01-22T19:46:02.710Z,0.06
2023-01-22T19:48:30.228Z,0.10
2023-01-22T19:50:58.593Z,0.14
2023-01-22T19:53:26.391Z,0.19
2023-01-22T19:55:53.944Z,0.26
2023-01-22T19:58:21.612Z,0.31
2023-01-22T20:00:49.009Z,0.34
2023-01-22T20:03:16.474Z,0.34
2023-01-22T20:05:44.688Z,0.32
2023-01-22T20:08:13.632Z,0.36
2023-01-22T20:10:41.614Z,0.40
2023-01-22T20:13:10.612Z,0.44
2023-01-22T20:15:38.876Z,0.41
2023-01-22T20:18:06.743Z,0.40
2023-01-22T20:20:34.505Z,0.43
2023-01-22T20:23:01.948Z,0.43
2023-01-22T20:25:31.095Z,0.39
2023-01-22T20:27:59.226Z,0.42
2023-01-22T20:30:27.186Z,0.47
2023-01-22T20:32:56.549Z,0.45
2023-01-22T20:35:24.042Z,0.43
2023-01-22T20:37:51.344Z,0.41
2023-01-22T20:40:18.706Z,0.43
2023-01-22T20:42:46.047Z,0.44
2023-01-22T20:45:13.455Z,0.46
2023-01-22T20:47:40.922Z,0.51
2023-01-22T20:50:09.043Z,0.55
2023-01-22T20:52:36.290Z,0.57
2023-01-22T20:55:04.034Z,0.59
2023-01-22T20:57:31.887Z,0.44
2023-01-22T20:59:59.243Z,0.35
2023-01-22T21:02:26.884Z,0.22
2023-01-22T21:04:54.207Z,0.21
2023-01-22T21:07:21.471Z,0.11
2023-01-22T21:09:49.542Z,0.06
2023-01-22T21:12:17.168Z,0.04
2023-01-22T21:14:44.454Z,-0.03
2023-01-22T21:17:12.512Z,-0.05
2023-01-22T21:19:44.305Z,-0.10
2023-01-22T21:22:11.639Z,-0.07
2023-01-22T21:24:38.874Z,-0.08
2023-01-22T21:27:06.125Z,-0.04
2023-01-22T21:29:33.400Z,-0.01
2023-01-22T21:32:00.619Z,0.01
2023-01-22T21:34:28.443Z,0.01
2023-01-22T21:36:58.741Z,0.02
2023-01-22T21:39:28.473Z,0.06
2023-01-22T21:42:14.630Z,0.07
2023-01-22T21:45:00.583Z,0.05
2023-01-22T21:47:28.441Z,0.02
2023-01-22T21:49:56.008Z,0.03
2023-01-22T21:52:23.237Z,0.05
2023-01-22T21:54:50.438Z,0.08
2023-01-22T21:57:17.649Z,0.14
2023-01-22T21:59:46.634Z,0.21
2023-01-22T22:02:16.351Z,0.25
2023-01-22T22:04:43.654Z,0.30
2023-01-22T22:07:11.204Z,0.34
2023-01-22T22:09:38.728Z,0.38
2023-01-22T22:12:06.278Z,0.41
2023-01-22T22:14:33.523Z,0.46
2023-01-22T22:17:00.767Z,0.41
2023-01-22T22:19:29.060Z,0.39
2023-01-22T22:21:56.485Z,0.35
2023-01-22T22:24:24.219Z,0.34
2023-01-22T22:27:11.336Z,0.34
2023-01-22T22:29:38.510Z,0.41
2023-01-22T22:32:05.806Z,0.45
2023-01-22T22:34:33.142Z,0.48
2023-01-22T22:37:00.322Z,0.45
2023-01-22T22:39:27.535Z,0.48
2023-01-22T22:41:54.757Z,0.49
2023-01-22T22:44:22.046Z,0.49
2023-01-22T22:46:49.523Z,0.54
2023-01-22T22:49:16.764Z,0.56
2023-01-22T22:51:44.510Z,0.58
2023-01-22T22:54:16.360Z,0.59
2023-01-22T22:56:47.553Z,0.61
2023-01-22T22:59:16.026Z,0.61
2023-01-22T23:01:43.325Z,0.57
2023-01-22T23:04:11.530Z,0.51
2023-01-22T23:06:39.180Z,0.51
2023-01-22T23:09:13.637Z,0.48
2023-01-22T23:11:41.275Z,0.40
2023-01-22T23:14:08.604Z,0.37
2023-01-22T23:16:39.665Z,0.33
2023-01-22T23:19:09.060Z,0.35
2023-01-22T23:21:38.549Z,0.37
2023-01-22T23:24:09.305Z,0.38
2023-01-22T23:26:39.086Z,0.38
2023-01-22T23:29:08.397Z,0.42
2023-01-22T23:31:39.315Z,0.44
2023-01-22T23:34:10.914Z,0.44
2023-01-22T23:36:39.487Z,0.43
2023-01-22T23:39:06.721Z,0.48
2023-01-22T23:41:34.724Z,0.51
2023-01-22T23:44:02.631Z,0.51
2023-01-22T23:46:35.248Z,0.50
2023-01-22T23:49:04.605Z,0.46
2023-01-22T23:51:32.089Z,0.49
2023-01-22T23:53:59.342Z,0.50
2023-01-22T23:56:30.221Z,0.45
2023-01-22T23:58:57.708Z,0.37
